sensor_id;sensor_type;location;lat;lon;timestamp;P1;durP1;ratioP1;P2;durP2;ratioP2
84858;SDS011;75115;42.984;23.244;2024-02-28T00:02:25;28.00;;;12.60;;
84858;SDS011;75115;42.984;23.244;2024-02-28T00:04:50;21.63;;;10.40;;
84858;SDS011;75115;42.984;23.244;2024-02-28T00:07:16;26.52;;;11.15;;
84858;SDS011;75115;42.984;23.244;2024-02-28T00:09:42;25.92;;;11.38;;
84858;SDS011;75115;42.984;23.244;2024-02-28T00:12:08;25.85;;;11.27;;
84858;SDS011;75115;42.984;23.244;2024-02-28T00:14:33;30.40;;;11.95;;
84858;SDS011;75115;42.984;23.244;2024-02-28T00:16:58;21.77;;;11.23;;
84858;SDS011;75115;42.984;23.244;2024-02-28T00:19:24;19.92;;;9.88;;
84858;SDS011;75115;42.984;23.244;2024-02-28T00:21:50;23.48;;;10.98;;
84858;SDS011;75115;42.984;23.244;2024-02-28T00:24:16;22.42;;;10.43;;
84858;SDS011;75115;42.984;23.244;2024-02-28T00:26:41;17.17;;;8.32;;
84858;SDS011;75115;42.984;23.244;2024-02-28T00:29:08;19.20;;;8.30;;
84858;SDS011;75115;42.984;23.244;2024-02-28T00:31:34;18.00;;;7.50;;
84858;SDS011;75115;42.984;23.244;2024-02-28T00:33:59;16.67;;;6.85;;
84858;SDS011;75115;42.984;23.244;2024-02-28T00:36:24;13.50;;;6.97;;
84858;SDS011;75115;42.984;23.244;2024-02-28T00:38:50;18.63;;;7.68;;
84858;SDS011;75115;42.984;23.244;2024-02-28T00:41:15;16.60;;;7.57;;
84858;SDS011;75115;42.984;23.244;2024-02-28T00:43:41;16.38;;;7.72;;
84858;SDS011;75115;42.984;23.244;2024-02-28T00:46:06;16.25;;;6.97;;
84858;SDS011;75115;42.984;23.244;2024-02-28T00:48:36;16.50;;;6.97;;
84858;SDS011;75115;42.984;23.244;2024-02-28T00:51:02;15.48;;;7.68;;
84858;SDS011;75115;42.984;23.244;2024-02-28T00:53:28;18.88;;;7.75;;
84858;SDS011;75115;42.984;23.244;2024-02-28T00:55:53;18.20;;;7.47;;
84858;SDS011;75115;42.984;23.244;2024-02-28T00:58:20;18.40;;;8.25;;
84858;SDS011;75115;42.984;23.244;2024-02-28T01:00:46;16.35;;;7.40;;
84858;SDS011;75115;42.984;23.244;2024-02-28T01:03:13;16.33;;;8.30;;
84858;SDS011;75115;42.984;23.244;2024-02-28T01:05:40;14.05;;;7.43;;
84858;SDS011;75115;42.984;23.244;2024-02-28T01:08:06;14.75;;;8.52;;
84858;SDS011;75115;42.984;23.244;2024-02-28T01:10:33;16.70;;;8.02;;
84858;SDS011;75115;42.984;23.244;2024-02-28T01:12:59;13.55;;;7.30;;
84858;SDS011;75115;42.984;23.244;2024-02-28T01:15:24;12.98;;;6.95;;
84858;SDS011;75115;42.984;23.244;2024-02-28T01:17:50;18.42;;;7.65;;
84858;SDS011;75115;42.984;23.244;2024-02-28T01:20:15;21.88;;;9.20;;
84858;SDS011;75115;42.984;23.244;2024-02-28T01:22:40;18.40;;;8.30;;
84858;SDS011;75115;42.984;23.244;2024-02-28T01:25:06;24.20;;;11.15;;
84858;SDS011;75115;42.984;23.244;2024-02-28T01:27:32;19.42;;;9.18;;
84858;SDS011;75115;42.984;23.244;2024-02-28T01:29:57;16.83;;;9.10;;
84858;SDS011;75115;42.984;23.244;2024-02-28T01:32:23;16.55;;;8.40;;
84858;SDS011;75115;42.984;23.244;2024-02-28T01:34:48;14.50;;;7.47;;
84858;SDS011;75115;42.984;23.244;2024-02-28T01:37:13;23.42;;;9.65;;
84858;SDS011;75115;42.984;23.244;2024-02-28T01:39:39;19.05;;;9.73;;
84858;SDS011;75115;42.984;23.244;2024-02-28T01:42:05;15.90;;;8.13;;
84858;SDS011;75115;42.984;23.244;2024-02-28T01:44:30;21.15;;;9.77;;
84858;SDS011;75115;42.984;23.244;2024-02-28T01:46:56;25.70;;;12.73;;
84858;SDS011;75115;42.984;23.244;2024-02-28T01:49:23;20.25;;;10.50;;
84858;SDS011;75115;42.984;23.244;2024-02-28T01:51:50;19.90;;;9.35;;
84858;SDS011;75115;42.984;23.244;2024-02-28T01:54:16;19.45;;;9.55;;
84858;SDS011;75115;42.984;23.244;2024-02-28T01:56:41;19.73;;;8.70;;
84858;SDS011;75115;42.984;23.244;2024-02-28T01:59:08;15.75;;;8.95;;
84858;SDS011;75115;42.984;23.244;2024-02-28T02:01:36;16.65;;;8.23;;
84858;SDS011;75115;42.984;23.244;2024-02-28T02:04:02;19.60;;;9.02;;
84858;SDS011;75115;42.984;23.244;2024-02-28T02:06:28;17.70;;;8.88;;
84858;SDS011;75115;42.984;23.244;2024-02-28T02:08:54;23.80;;;9.02;;
84858;SDS011;75115;42.984;23.244;2024-02-28T02:11:20;17.30;;;8.70;;
84858;SDS011;75115;42.984;23.244;2024-02-28T02:13:50;19.45;;;8.75;;
84858;SDS011;75115;42.984;23.244;2024-02-28T02:16:16;21.83;;;9.50;;
84858;SDS011;75115;42.984;23.244;2024-02-28T02:18:42;22.02;;;10.40;;
84858;SDS011;75115;42.984;23.244;2024-02-28T02:21:08;23.10;;;9.68;;
84858;SDS011;75115;42.984;23.244;2024-02-28T02:23:35;20.35;;;9.70;;
84858;SDS011;75115;42.984;23.244;2024-02-28T02:26:04;28.27;;;11.48;;
84858;SDS011;75115;42.984;23.244;2024-02-28T02:28:29;16.52;;;8.52;;
84858;SDS011;75115;42.984;23.244;2024-02-28T02:30:55;20.58;;;9.02;;
84858;SDS011;75115;42.984;23.244;2024-02-28T02:33:20;18.90;;;8.30;;
84858;SDS011;75115;42.984;23.244;2024-02-28T02:35:45;15.77;;;8.27;;
84858;SDS011;75115;42.984;23.244;2024-02-28T02:38:11;20.30;;;8.25;;
84858;SDS011;75115;42.984;23.244;2024-02-28T02:40:36;18.30;;;8.60;;
84858;SDS011;75115;42.984;23.244;2024-02-28T02:43:02;18.58;;;9.13;;
84858;SDS011;75115;42.984;23.244;2024-02-28T02:45:27;17.65;;;9.07;;
84858;SDS011;75115;42.984;23.244;2024-02-28T02:47:53;16.77;;;8.40;;
84858;SDS011;75115;42.984;23.244;2024-02-28T02:50:18;21.45;;;9.90;;
84858;SDS011;75115;42.984;23.244;2024-02-28T02:52:43;17.85;;;9.50;;
84858;SDS011;75115;42.984;23.244;2024-02-28T02:55:09;19.35;;;8.60;;
84858;SDS011;75115;42.984;23.244;2024-02-28T02:57:35;15.82;;;7.85;;
84858;SDS011;75115;42.984;23.244;2024-02-28T03:00:00;15.63;;;8.48;;
84858;SDS011;75115;42.984;23.244;2024-02-28T03:02:26;17.40;;;8.43;;
84858;SDS011;75115;42.984;23.244;2024-02-28T03:04:51;20.80;;;9.55;;
84858;SDS011;75115;42.984;23.244;2024-02-28T03:07:17;16.33;;;7.93;;
84858;SDS011;75115;42.984;23.244;2024-02-28T03:09:42;14.00;;;7.63;;
84858;SDS011;75115;42.984;23.244;2024-02-28T03:12:07;13.15;;;7.18;;
84858;SDS011;75115;42.984;23.244;2024-02-28T03:14:34;13.32;;;6.90;;
84858;SDS011;75115;42.984;23.244;2024-02-28T03:17:00;15.13;;;7.55;;
84858;SDS011;75115;42.984;23.244;2024-02-28T03:19:25;15.98;;;6.97;;
84858;SDS011;75115;42.984;23.244;2024-02-28T03:21:51;13.43;;;6.25;;
84858;SDS011;75115;42.984;23.244;2024-02-28T03:24:16;11.25;;;5.90;;
84858;SDS011;75115;42.984;23.244;2024-02-28T03:26:42;14.23;;;6.35;;
84858;SDS011;75115;42.984;23.244;2024-02-28T03:29:08;13.65;;;5.68;;
84858;SDS011;75115;42.984;23.244;2024-02-28T03:31:33;12.13;;;5.65;;
84858;SDS011;75115;42.984;23.244;2024-02-28T03:33:59;10.18;;;5.53;;
84858;SDS011;75115;42.984;23.244;2024-02-28T03:36:24;18.30;;;7.15;;
84858;SDS011;75115;42.984;23.244;2024-02-28T03:38:50;14.00;;;6.13;;
84858;SDS011;75115;42.984;23.244;2024-02-28T03:41:15;12.63;;;5.65;;
84858;SDS011;75115;42.984;23.244;2024-02-28T03:43:41;13.70;;;5.88;;
84858;SDS011;75115;42.984;23.244;2024-02-28T03:46:06;12.77;;;6.43;;
84858;SDS011;75115;42.984;23.244;2024-02-28T03:48:31;13.65;;;6.43;;
84858;SDS011;75115;42.984;23.244;2024-02-28T03:50:57;14.75;;;7.13;;
84858;SDS011;75115;42.984;23.244;2024-02-28T03:53:22;15.25;;;7.28;;
84858;SDS011;75115;42.984;23.244;2024-02-28T03:55:48;15.90;;;7.25;;
84858;SDS011;75115;42.984;23.244;2024-02-28T03:58:15;12.52;;;5.93;;
84858;SDS011;75115;42.984;23.244;2024-02-28T04:00:40;16.63;;;6.68;;
84858;SDS011;75115;42.984;23.244;2024-02-28T04:03:05;14.05;;;6.40;;
84858;SDS011;75115;42.984;23.244;2024-02-28T04:05:31;15.32;;;7.47;;
84858;SDS011;75115;42.984;23.244;2024-02-28T04:07:56;16.45;;;7.55;;
84858;SDS011;75115;42.984;23.244;2024-02-28T04:10:22;17.63;;;6.97;;
84858;SDS011;75115;42.984;23.244;2024-02-28T04:12:47;16.17;;;6.72;;
84858;SDS011;75115;42.984;23.244;2024-02-28T04:15:13;18.77;;;7.63;;
84858;SDS011;75115;42.984;23.244;2024-02-28T04:17:39;22.25;;;10.05;;
84858;SDS011;75115;42.984;23.244;2024-02-28T04:20:11;26.00;;;11.23;;
84858;SDS011;75115;42.984;23.244;2024-02-28T04:22:37;25.38;;;11.95;;
84858;SDS011;75115;42.984;23.244;2024-02-28T04:25:07;27.48;;;14.15;;
84858;SDS011;75115;42.984;23.244;2024-02-28T04:27:34;37.42;;;14.27;;
84858;SDS011;75115;42.984;23.244;2024-02-28T04:30:02;28.90;;;12.38;;
84858;SDS011;75115;42.984;23.244;2024-02-28T04:32:29;38.80;;;16.33;;
84858;SDS011;75115;42.984;23.244;2024-02-28T04:34:54;36.88;;;13.75;;
84858;SDS011;75115;42.984;23.244;2024-02-28T04:37:19;27.90;;;11.57;;
84858;SDS011;75115;42.984;23.244;2024-02-28T04:39:46;34.10;;;14.82;;
84858;SDS011;75115;42.984;23.244;2024-02-28T04:42:12;38.90;;;14.40;;
84858;SDS011;75115;42.984;23.244;2024-02-28T04:44:38;28.33;;;12.63;;
84858;SDS011;75115;42.984;23.244;2024-02-28T04:47:03;19.05;;;8.95;;
84858;SDS011;75115;42.984;23.244;2024-02-28T04:49:29;24.52;;;8.85;;
84858;SDS011;75115;42.984;23.244;2024-02-28T04:51:55;19.92;;;7.88;;
84858;SDS011;75115;42.984;23.244;2024-02-28T04:54:20;18.23;;;7.97;;
84858;SDS011;75115;42.984;23.244;2024-02-28T04:56:46;19.08;;;9.18;;
84858;SDS011;75115;42.984;23.244;2024-02-28T04:59:11;17.83;;;8.40;;
84858;SDS011;75115;42.984;23.244;2024-02-28T05:01:38;18.85;;;7.95;;
84858;SDS011;75115;42.984;23.244;2024-02-28T05:04:10;16.85;;;7.75;;
84858;SDS011;75115;42.984;23.244;2024-02-28T05:06:36;16.88;;;9.25;;
84858;SDS011;75115;42.984;23.244;2024-02-28T05:09:04;27.70;;;10.32;;
84858;SDS011;75115;42.984;23.244;2024-02-28T05:11:30;18.42;;;8.05;;
84858;SDS011;75115;42.984;23.244;2024-02-28T05:13:55;20.85;;;8.65;;
84858;SDS011;75115;42.984;23.244;2024-02-28T05:16:20;21.05;;;7.68;;
84858;SDS011;75115;42.984;23.244;2024-02-28T05:18:46;16.60;;;7.03;;
84858;SDS011;75115;42.984;23.244;2024-02-28T05:21:12;17.30;;;8.13;;
84858;SDS011;75115;42.984;23.244;2024-02-28T05:23:37;17.95;;;8.63;;
84858;SDS011;75115;42.984;23.244;2024-02-28T05:26:03;17.92;;;8.55;;
84858;SDS011;75115;42.984;23.244;2024-02-28T05:28:30;18.77;;;8.30;;
84858;SDS011;75115;42.984;23.244;2024-02-28T05:30:56;22.95;;;8.65;;
84858;SDS011;75115;42.984;23.244;2024-02-28T05:33:21;21.50;;;8.05;;
84858;SDS011;75115;42.984;23.244;2024-02-28T05:35:47;25.10;;;10.75;;
84858;SDS011;75115;42.984;23.244;2024-02-28T05:38:12;21.35;;;9.85;;
84858;SDS011;75115;42.984;23.244;2024-02-28T05:40:38;20.08;;;9.60;;
84858;SDS011;75115;42.984;23.244;2024-02-28T05:43:06;26.85;;;11.07;;
84858;SDS011;75115;42.984;23.244;2024-02-28T05:45:31;24.08;;;10.60;;
84858;SDS011;75115;42.984;23.244;2024-02-28T05:47:56;21.33;;;10.45;;
84858;SDS011;75115;42.984;23.244;2024-02-28T05:50:22;23.73;;;10.65;;
84858;SDS011;75115;42.984;23.244;2024-02-28T05:52:47;20.38;;;10.23;;
84858;SDS011;75115;42.984;23.244;2024-02-28T05:55:12;23.60;;;11.30;;
84858;SDS011;75115;42.984;23.244;2024-02-28T05:57:38;23.40;;;10.88;;
84858;SDS011;75115;42.984;23.244;2024-02-28T06:00:04;23.70;;;10.13;;
84858;SDS011;75115;42.984;23.244;2024-02-28T06:02:37;22.83;;;10.48;;
84858;SDS011;75115;42.984;23.244;2024-02-28T06:05:03;20.25;;;10.30;;
84858;SDS011;75115;42.984;23.244;2024-02-28T06:07:29;26.08;;;10.95;;
84858;SDS011;75115;42.984;23.244;2024-02-28T06:09:55;25.75;;;10.90;;
84858;SDS011;75115;42.984;23.244;2024-02-28T06:12:20;19.00;;;10.65;;
84858;SDS011;75115;42.984;23.244;2024-02-28T06:14:46;20.52;;;9.70;;
84858;SDS011;75115;42.984;23.244;2024-02-28T06:17:11;24.80;;;12.80;;
84858;SDS011;75115;42.984;23.244;2024-02-28T06:19:37;30.50;;;13.00;;
84858;SDS011;75115;42.984;23.244;2024-02-28T06:22:02;21.85;;;11.43;;
84858;SDS011;75115;42.984;23.244;2024-02-28T06:24:28;21.92;;;9.80;;
84858;SDS011;75115;42.984;23.244;2024-02-28T06:26:53;20.65;;;10.93;;
84858;SDS011;75115;42.984;23.244;2024-02-28T06:29:18;23.20;;;10.85;;
84858;SDS011;75115;42.984;23.244;2024-02-28T06:31:49;21.67;;;10.70;;
84858;SDS011;75115;42.984;23.244;2024-02-28T06:34:15;21.20;;;10.73;;
84858;SDS011;75115;42.984;23.244;2024-02-28T06:36:40;16.27;;;9.32;;
84858;SDS011;75115;42.984;23.244;2024-02-28T06:39:06;42.97;;;18.38;;
84858;SDS011;75115;42.984;23.244;2024-02-28T06:41:31;42.05;;;19.52;;
84858;SDS011;75115;42.984;23.244;2024-02-28T06:43:56;16.33;;;10.40;;
84858;SDS011;75115;42.984;23.244;2024-02-28T06:46:22;18.60;;;10.05;;
84858;SDS011;75115;42.984;23.244;2024-02-28T06:48:47;14.52;;;9.75;;
84858;SDS011;75115;42.984;23.244;2024-02-28T06:51:13;16.20;;;9.02;;
84858;SDS011;75115;42.984;23.244;2024-02-28T06:53:41;14.40;;;9.68;;
84858;SDS011;75115;42.984;23.244;2024-02-28T06:56:07;13.90;;;8.07;;
84858;SDS011;75115;42.984;23.244;2024-02-28T06:58:32;15.85;;;7.90;;
84858;SDS011;75115;42.984;23.244;2024-02-28T07:00:58;14.80;;;7.57;;
84858;SDS011;75115;42.984;23.244;2024-02-28T07:03:23;13.48;;;7.88;;
84858;SDS011;75115;42.984;23.244;2024-02-28T07:05:48;11.43;;;7.53;;
84858;SDS011;75115;42.984;23.244;2024-02-28T07:08:14;11.38;;;7.15;;
84858;SDS011;75115;42.984;23.244;2024-02-28T07:10:39;14.50;;;7.43;;
84858;SDS011;75115;42.984;23.244;2024-02-28T07:13:08;15.50;;;8.10;;
84858;SDS011;75115;42.984;23.244;2024-02-28T07:15:34;14.23;;;6.57;;
84858;SDS011;75115;42.984;23.244;2024-02-28T07:17:59;9.60;;;5.55;;
84858;SDS011;75115;42.984;23.244;2024-02-28T07:20:24;9.60;;;6.20;;
84858;SDS011;75115;42.984;23.244;2024-02-28T07:22:50;10.70;;;6.10;;
84858;SDS011;75115;42.984;23.244;2024-02-28T07:25:15;9.68;;;5.35;;
84858;SDS011;75115;42.984;23.244;2024-02-28T07:27:40;8.88;;;6.28;;
84858;SDS011;75115;42.984;23.244;2024-02-28T07:30:06;13.35;;;5.97;;
84858;SDS011;75115;42.984;23.244;2024-02-28T07:32:32;12.13;;;5.72;;
84858;SDS011;75115;42.984;23.244;2024-02-28T07:35:00;9.50;;;6.28;;
84858;SDS011;75115;42.984;23.244;2024-02-28T07:37:26;16.55;;;9.63;;
84858;SDS011;75115;42.984;23.244;2024-02-28T07:39:51;13.13;;;8.43;;
84858;SDS011;75115;42.984;23.244;2024-02-28T07:42:16;13.40;;;8.15;;
84858;SDS011;75115;42.984;23.244;2024-02-28T07:44:42;13.40;;;8.68;;
84858;SDS011;75115;42.984;23.244;2024-02-28T07:47:08;14.70;;;9.35;;
84858;SDS011;75115;42.984;23.244;2024-02-28T07:49:33;17.58;;;9.10;;
84858;SDS011;75115;42.984;23.244;2024-02-28T07:51:59;13.73;;;9.40;;
84858;SDS011;75115;42.984;23.244;2024-02-28T07:54:24;14.50;;;8.77;;
84858;SDS011;75115;42.984;23.244;2024-02-28T07:56:50;25.05;;;10.43;;
84858;SDS011;75115;42.984;23.244;2024-02-28T07:59:15;20.35;;;11.93;;
84858;SDS011;75115;42.984;23.244;2024-02-28T08:01:40;17.02;;;10.50;;
84858;SDS011;75115;42.984;23.244;2024-02-28T08:04:06;17.92;;;10.48;;
84858;SDS011;75115;42.984;23.244;2024-02-28T08:06:31;19.67;;;9.38;;
84858;SDS011;75115;42.984;23.244;2024-02-28T08:08:58;13.88;;;9.05;;
84858;SDS011;75115;42.984;23.244;2024-02-28T08:11:23;17.42;;;9.43;;
84858;SDS011;75115;42.984;23.244;2024-02-28T08:13:50;13.60;;;8.13;;
84858;SDS011;75115;42.984;23.244;2024-02-28T08:16:15;16.08;;;8.75;;
84858;SDS011;75115;42.984;23.244;2024-02-28T08:18:41;20.45;;;10.15;;
84858;SDS011;75115;42.984;23.244;2024-02-28T08:21:06;21.67;;;11.13;;
84858;SDS011;75115;42.984;23.244;2024-02-28T08:23:31;20.60;;;9.95;;
84858;SDS011;75115;42.984;23.244;2024-02-28T08:25:57;16.08;;;8.27;;
84858;SDS011;75115;42.984;23.244;2024-02-28T08:28:23;15.02;;;8.13;;
84858;SDS011;75115;42.984;23.244;2024-02-28T08:30:49;18.00;;;8.52;;
84858;SDS011;75115;42.984;23.244;2024-02-28T08:33:14;16.92;;;8.73;;
84858;SDS011;75115;42.984;23.244;2024-02-28T08:35:42;13.68;;;6.97;;
84858;SDS011;75115;42.984;23.244;2024-02-28T08:38:08;16.23;;;7.97;;
84858;SDS011;75115;42.984;23.244;2024-02-28T08:40:33;12.50;;;7.32;;
84858;SDS011;75115;42.984;23.244;2024-02-28T08:42:59;20.52;;;7.78;;
84858;SDS011;75115;42.984;23.244;2024-02-28T08:45:24;12.93;;;7.05;;
84858;SDS011;75115;42.984;23.244;2024-02-28T08:47:49;13.23;;;7.57;;
84858;SDS011;75115;42.984;23.244;2024-02-28T08:50:15;11.63;;;6.30;;
84858;SDS011;75115;42.984;23.244;2024-02-28T08:52:40;13.35;;;7.10;;
84858;SDS011;75115;42.984;23.244;2024-02-28T08:55:06;11.02;;;5.65;;
84858;SDS011;75115;42.984;23.244;2024-02-28T08:57:31;12.45;;;5.78;;
84858;SDS011;75115;42.984;23.244;2024-02-28T08:59:57;13.07;;;5.63;;
84858;SDS011;75115;42.984;23.244;2024-02-28T09:02:22;10.60;;;6.20;;
84858;SDS011;75115;42.984;23.244;2024-02-28T09:04:48;12.65;;;5.45;;
84858;SDS011;75115;42.984;23.244;2024-02-28T09:07:19;11.45;;;5.30;;
84858;SDS011;75115;42.984;23.244;2024-02-28T09:09:45;13.45;;;5.53;;
84858;SDS011;75115;42.984;23.244;2024-02-28T09:12:10;14.23;;;5.68;;
84858;SDS011;75115;42.984;23.244;2024-02-28T09:14:36;12.20;;;5.47;;
84858;SDS011;75115;42.984;23.244;2024-02-28T09:17:02;11.68;;;5.75;;
84858;SDS011;75115;42.984;23.244;2024-02-28T09:19:30;9.70;;;5.70;;
84858;SDS011;75115;42.984;23.244;2024-02-28T09:21:56;9.95;;;5.85;;
84858;SDS011;75115;42.984;23.244;2024-02-28T09:24:22;11.38;;;5.30;;
84858;SDS011;75115;42.984;23.244;2024-02-28T09:26:49;6.90;;;4.50;;
84858;SDS011;75115;42.984;23.244;2024-02-28T09:29:15;10.07;;;5.38;;
84858;SDS011;75115;42.984;23.244;2024-02-28T09:31:40;9.48;;;5.10;;
84858;SDS011;75115;42.984;23.244;2024-02-28T09:34:05;10.85;;;4.43;;
84858;SDS011;75115;42.984;23.244;2024-02-28T09:36:43;9.38;;;5.40;;
84858;SDS011;75115;42.984;23.244;2024-02-28T09:39:10;11.98;;;4.85;;
84858;SDS011;75115;42.984;23.244;2024-02-28T09:41:37;8.93;;;5.22;;
84858;SDS011;75115;42.984;23.244;2024-02-28T09:44:03;9.20;;;4.97;;
84858;SDS011;75115;42.984;23.244;2024-02-28T09:46:31;13.18;;;4.63;;
84858;SDS011;75115;42.984;23.244;2024-02-28T09:48:59;8.82;;;5.05;;
84858;SDS011;75115;42.984;23.244;2024-02-28T09:51:35;13.57;;;6.60;;
84858;SDS011;75115;42.984;23.244;2024-02-28T09:54:02;9.00;;;5.40;;
84858;SDS011;75115;42.984;23.244;2024-02-28T09:56:28;9.05;;;5.65;;
84858;SDS011;75115;42.984;23.244;2024-02-28T09:58:54;10.13;;;8.05;;
84858;SDS011;75115;42.984;23.244;2024-02-28T10:01:21;14.20;;;6.43;;
84858;SDS011;75115;42.984;23.244;2024-02-28T10:03:47;6.68;;;4.22;;
84858;SDS011;75115;42.984;23.244;2024-02-28T10:06:15;7.75;;;4.35;;
84858;SDS011;75115;42.984;23.244;2024-02-28T10:08:41;7.55;;;4.95;;
84858;SDS011;75115;42.984;23.244;2024-02-28T10:11:06;8.68;;;4.15;;
84858;SDS011;75115;42.984;23.244;2024-02-28T10:13:32;11.73;;;4.38;;
84858;SDS011;75115;42.984;23.244;2024-02-28T10:15:57;7.85;;;3.97;;
84858;SDS011;75115;42.984;23.244;2024-02-28T10:18:23;9.30;;;4.15;;
84858;SDS011;75115;42.984;23.244;2024-02-28T10:20:50;10.38;;;3.90;;
84858;SDS011;75115;42.984;23.244;2024-02-28T10:23:15;9.95;;;4.00;;
84858;SDS011;75115;42.984;23.244;2024-02-28T10:25:42;8.05;;;4.00;;
84858;SDS011;75115;42.984;23.244;2024-02-28T10:28:09;7.30;;;4.80;;
84858;SDS011;75115;42.984;23.244;2024-02-28T10:30:38;9.75;;;5.43;;
84858;SDS011;75115;42.984;23.244;2024-02-28T10:33:05;8.38;;;4.53;;
84858;SDS011;75115;42.984;23.244;2024-02-28T10:35:30;8.38;;;4.80;;
84858;SDS011;75115;42.984;23.244;2024-02-28T10:37:56;9.13;;;4.35;;
84858;SDS011;75115;42.984;23.244;2024-02-28T10:40:21;6.57;;;3.83;;
84858;SDS011;75115;42.984;23.244;2024-02-28T10:42:47;9.02;;;4.47;;
84858;SDS011;75115;42.984;23.244;2024-02-28T10:45:13;11.30;;;3.88;;
84858;SDS011;75115;42.984;23.244;2024-02-28T10:47:42;10.30;;;3.78;;
84858;SDS011;75115;42.984;23.244;2024-02-28T10:50:08;8.50;;;4.63;;
84858;SDS011;75115;42.984;23.244;2024-02-28T10:52:33;7.22;;;3.17;;
84858;SDS011;75115;42.984;23.244;2024-02-28T10:55:03;10.15;;;3.55;;
84858;SDS011;75115;42.984;23.244;2024-02-28T10:57:33;5.78;;;3.38;;
84858;SDS011;75115;42.984;23.244;2024-02-28T11:00:01;7.57;;;3.47;;
84858;SDS011;75115;42.984;23.244;2024-02-28T11:02:29;7.88;;;3.17;;
84858;SDS011;75115;42.984;23.244;2024-02-28T11:04:56;7.05;;;3.83;;
84858;SDS011;75115;42.984;23.244;2024-02-28T11:07:23;7.38;;;3.63;;
84858;SDS011;75115;42.984;23.244;2024-02-28T11:09:53;9.85;;;3.15;;
84858;SDS011;75115;42.984;23.244;2024-02-28T11:12:29;7.60;;;3.67;;
84858;SDS011;75115;42.984;23.244;2024-02-28T11:15:01;8.10;;;3.33;;
84858;SDS011;75115;42.984;23.244;2024-02-28T11:17:28;14.63;;;4.10;;
84858;SDS011;75115;42.984;23.244;2024-02-28T11:19:54;8.50;;;3.38;;
84858;SDS011;75115;42.984;23.244;2024-02-28T11:22:21;7.80;;;3.58;;
84858;SDS011;75115;42.984;23.244;2024-02-28T11:24:47;7.00;;;3.42;;
84858;SDS011;75115;42.984;23.244;2024-02-28T11:27:14;7.88;;;3.00;;
84858;SDS011;75115;42.984;23.244;2024-02-28T11:29:40;5.30;;;3.17;;
84858;SDS011;75115;42.984;23.244;2024-02-28T11:32:06;10.68;;;3.30;;
84858;SDS011;75115;42.984;23.244;2024-02-28T11:34:33;6.45;;;2.95;;
84858;SDS011;75115;42.984;23.244;2024-02-28T11:36:59;7.28;;;2.63;;
84858;SDS011;75115;42.984;23.244;2024-02-28T11:39:24;7.95;;;3.17;;
84858;SDS011;75115;42.984;23.244;2024-02-28T11:41:51;5.57;;;3.30;;
84858;SDS011;75115;42.984;23.244;2024-02-28T11:44:17;8.15;;;3.63;;
84858;SDS011;75115;42.984;23.244;2024-02-28T11:46:47;6.32;;;2.20;;
84858;SDS011;75115;42.984;23.244;2024-02-28T11:49:13;8.85;;;3.78;;
84858;SDS011;75115;42.984;23.244;2024-02-28T11:51:40;7.80;;;2.58;;
84858;SDS011;75115;42.984;23.244;2024-02-28T11:54:09;7.63;;;2.60;;
84858;SDS011;75115;42.984;23.244;2024-02-28T11:56:38;5.13;;;2.53;;
84858;SDS011;75115;42.984;23.244;2024-02-28T11:59:04;4.97;;;2.08;;
84858;SDS011;75115;42.984;23.244;2024-02-28T12:01:44;8.65;;;2.95;;
84858;SDS011;75115;42.984;23.244;2024-02-28T12:04:09;5.68;;;2.80;;
84858;SDS011;75115;42.984;23.244;2024-02-28T12:06:36;6.60;;;2.40;;
84858;SDS011;75115;42.984;23.244;2024-02-28T12:09:06;5.38;;;2.60;;
84858;SDS011;75115;42.984;23.244;2024-02-28T12:11:36;9.73;;;2.35;;
84858;SDS011;75115;42.984;23.244;2024-02-28T12:14:08;4.57;;;2.17;;
84858;SDS011;75115;42.984;23.244;2024-02-28T12:16:38;5.85;;;2.63;;
84858;SDS011;75115;42.984;23.244;2024-02-28T12:19:08;14.27;;;4.47;;
84858;SDS011;75115;42.984;23.244;2024-02-28T12:21:37;7.03;;;3.35;;
84858;SDS011;75115;42.984;23.244;2024-02-28T12:24:04;6.90;;;3.05;;
84858;SDS011;75115;42.984;23.244;2024-02-28T12:26:32;8.20;;;2.85;;
84858;SDS011;75115;42.984;23.244;2024-02-28T12:28:57;4.75;;;2.63;;
84858;SDS011;75115;42.984;23.244;2024-02-28T12:31:23;5.90;;;2.67;;
84858;SDS011;75115;42.984;23.244;2024-02-28T12:33:49;4.25;;;2.55;;
84858;SDS011;75115;42.984;23.244;2024-02-28T12:36:14;4.45;;;2.45;;
84858;SDS011;75115;42.984;23.244;2024-02-28T12:38:39;5.95;;;2.70;;
84858;SDS011;75115;42.984;23.244;2024-02-28T12:41:06;7.47;;;3.25;;
84858;SDS011;75115;42.984;23.244;2024-02-28T12:43:31;6.60;;;2.90;;
84858;SDS011;75115;42.984;23.244;2024-02-28T12:45:58;5.65;;;2.88;;
84858;SDS011;75115;42.984;23.244;2024-02-28T12:48:23;8.45;;;2.17;;
84858;SDS011;75115;42.984;23.244;2024-02-28T12:50:49;9.43;;;3.05;;
84858;SDS011;75115;42.984;23.244;2024-02-28T12:53:14;5.43;;;2.65;;
84858;SDS011;75115;42.984;23.244;2024-02-28T12:55:40;4.80;;;2.55;;
84858;SDS011;75115;42.984;23.244;2024-02-28T12:58:05;7.80;;;3.15;;
84858;SDS011;75115;42.984;23.244;2024-02-28T13:00:31;21.40;;;11.32;;
84858;SDS011;75115;42.984;23.244;2024-02-28T13:02:57;11.73;;;3.72;;
84858;SDS011;75115;42.984;23.244;2024-02-28T13:05:22;9.95;;;3.22;;
84858;SDS011;75115;42.984;23.244;2024-02-28T13:07:47;4.25;;;2.30;;
84858;SDS011;75115;42.984;23.244;2024-02-28T13:10:13;6.47;;;3.25;;
84858;SDS011;75115;42.984;23.244;2024-02-28T13:12:38;6.57;;;3.65;;
84858;SDS011;75115;42.984;23.244;2024-02-28T13:15:09;6.47;;;2.60;;
84858;SDS011;75115;42.984;23.244;2024-02-28T13:17:35;7.60;;;3.33;;
84858;SDS011;75115;42.984;23.244;2024-02-28T13:20:00;4.30;;;3.00;;
84858;SDS011;75115;42.984;23.244;2024-02-28T13:22:27;6.78;;;2.85;;
84858;SDS011;75115;42.984;23.244;2024-02-28T13:24:53;16.70;;;2.88;;
84858;SDS011;75115;42.984;23.244;2024-02-28T13:27:19;8.55;;;3.53;;
84858;SDS011;75115;42.984;23.244;2024-02-28T13:29:45;5.70;;;2.72;;
84858;SDS011;75115;42.984;23.244;2024-02-28T13:32:10;5.13;;;2.60;;
84858;SDS011;75115;42.984;23.244;2024-02-28T13:34:35;10.98;;;3.92;;
84858;SDS011;75115;42.984;23.244;2024-02-28T13:37:01;7.35;;;3.00;;
84858;SDS011;75115;42.984;23.244;2024-02-28T13:39:26;4.63;;;3.00;;
84858;SDS011;75115;42.984;23.244;2024-02-28T13:41:52;7.78;;;3.00;;
84858;SDS011;75115;42.984;23.244;2024-02-28T13:44:18;8.55;;;3.63;;
84858;SDS011;75115;42.984;23.244;2024-02-28T13:46:46;7.30;;;3.80;;
84858;SDS011;75115;42.984;23.244;2024-02-28T13:49:13;7.68;;;3.33;;
84858;SDS011;75115;42.984;23.244;2024-02-28T13:51:39;8.55;;;3.33;;
84858;SDS011;75115;42.984;23.244;2024-02-28T13:54:04;7.40;;;3.95;;
84858;SDS011;75115;42.984;23.244;2024-02-28T13:56:30;9.02;;;3.42;;
84858;SDS011;75115;42.984;23.244;2024-02-28T13:58:56;10.27;;;2.60;;
84858;SDS011;75115;42.984;23.244;2024-02-28T14:01:22;6.32;;;2.72;;
84858;SDS011;75115;42.984;23.244;2024-02-28T14:03:47;7.43;;;3.05;;
84858;SDS011;75115;42.984;23.244;2024-02-28T14:06:13;10.05;;;3.83;;
84858;SDS011;75115;42.984;23.244;2024-02-28T14:08:39;6.22;;;2.60;;
84858;SDS011;75115;42.984;23.244;2024-02-28T14:11:04;8.57;;;2.88;;
84858;SDS011;75115;42.984;23.244;2024-02-28T14:13:30;6.95;;;3.08;;
84858;SDS011;75115;42.984;23.244;2024-02-28T14:15:55;11.32;;;3.67;;
84858;SDS011;75115;42.984;23.244;2024-02-28T14:18:21;6.47;;;3.92;;